createdAt,value
2022-09-10T00:01:59.285Z,1.05
2022-09-10T00:04:27.629Z,1.00
2022-09-10T00:06:55.476Z,1.40
2022-09-10T00:09:22.956Z,1.30
2022-09-10T00:11:50.092Z,1.10
2022-09-10T00:14:18.418Z,1.00
2022-09-10T00:16:45.606Z,2.45
2022-09-10T00:19:12.932Z,1.30
2022-09-10T00:21:40.036Z,1.17
2022-09-10T00:24:07.322Z,1.13
2022-09-10T00:26:38.120Z,1.27
2022-09-10T00:29:06.701Z,1.30
2022-09-10T00:31:34.396Z,1.20
2022-09-10T00:34:02.494Z,1.00
2022-09-10T00:36:32.935Z,1.00
2022-09-10T00:39:02.415Z,1.27
2022-09-10T00:41:29.963Z,1.40
2022-09-10T00:44:06.922Z,0.95
2022-09-10T00:46:44.355Z,1.23
2022-09-10T00:49:23.129Z,1.33
2022-09-10T00:51:52.201Z,1.02
2022-09-10T00:54:20.645Z,1.02
2022-09-10T00:56:49.573Z,1.08
2022-09-10T00:59:18.857Z,1.15
2022-09-10T01:01:46.102Z,1.10
2022-09-10T01:04:13.217Z,1.33
2022-09-10T01:06:40.926Z,1.33
2022-09-10T01:09:08.643Z,1.00
2022-09-10T01:11:39.943Z,1.00
2022-09-10T01:14:16.292Z,1.95
2022-09-10T01:16:57.361Z,1.30
2022-09-10T01:21:51.939Z,1.17
2022-09-10T01:24:37.021Z,1.15
2022-09-10T01:27:22.559Z,1.20
2022-09-10T01:29:56.048Z,1.10
2022-09-10T01:32:27.598Z,1.30
2022-09-10T01:35:14.567Z,1.27
2022-09-10T01:37:43.652Z,1.10
2022-09-10T01:40:11.216Z,1.63
2022-09-10T01:42:39.746Z,1.40
2022-09-10T01:45:07.314Z,1.70
2022-09-10T01:47:53.195Z,1.38
2022-09-10T01:50:26.229Z,1.02
2022-09-10T01:52:59.587Z,1.33
2022-09-10T01:55:27.252Z,1.45
2022-09-10T01:58:04.989Z,1.55
2022-09-10T02:00:33.380Z,1.38
2022-09-10T02:03:02.487Z,1.52
2022-09-10T02:05:30.999Z,1.40
2022-09-10T02:08:03.713Z,1.42
2022-09-10T02:10:30.834Z,1.60
2022-09-10T02:12:58.002Z,1.42
2022-09-10T02:15:28.607Z,1.60
2022-09-10T02:17:56.292Z,1.42
2022-09-10T02:20:23.765Z,1.50
2022-09-10T02:22:52.826Z,1.40
2022-09-10T02:25:20.182Z,1.60
2022-09-10T02:27:47.463Z,1.40
2022-09-10T02:30:14.719Z,1.70
2022-09-10T02:32:42.967Z,1.90
2022-09-10T02:35:10.140Z,1.60
2022-09-10T02:37:37.595Z,1.52
2022-09-10T02:40:05.735Z,1.23
2022-09-10T02:42:34.052Z,1.42
2022-09-10T02:45:01.322Z,1.80
2022-09-10T02:47:28.928Z,1.65
2022-09-10T02:49:56.051Z,1.67
2022-09-10T02:52:23.143Z,1.92
2022-09-10T02:54:50.425Z,1.55
2022-09-10T02:57:17.578Z,1.60
2022-09-10T02:59:44.642Z,1.83
2022-09-10T03:02:11.788Z,1.70
2022-09-10T03:04:39.219Z,1.65
2022-09-10T03:07:06.601Z,1.90
2022-09-10T03:09:35.647Z,1.90
2022-09-10T03:12:02.971Z,1.60
2022-09-10T03:14:31.089Z,2.08
2022-09-10T03:16:58.249Z,2.20
2022-09-10T03:19:25.382Z,1.83
2022-09-10T03:21:53.050Z,1.98
2022-09-10T03:24:20.514Z,1.70
2022-09-10T03:26:47.620Z,1.80
2022-09-10T03:29:15.489Z,2.00
2022-09-10T03:31:43.052Z,1.80
2022-09-10T03:34:12.502Z,1.88
2022-09-10T03:36:39.794Z,1.98
2022-09-10T03:39:06.898Z,2.47
2022-09-10T03:41:34.234Z,2.17
2022-09-10T03:44:01.548Z,2.35
2022-09-10T03:46:28.810Z,2.67
2022-09-10T03:48:56.505Z,2.20
2022-09-10T03:51:23.597Z,1.90
2022-09-10T03:53:50.899Z,1.95
2022-09-10T03:56:20.031Z,2.33
2022-09-10T03:58:49.187Z,2.42
2022-09-10T04:01:19.782Z,2.15
2022-09-10T04:03:47.272Z,2.03
2022-09-10T04:06:16.189Z,2.00
2022-09-10T04:08:46.250Z,2.53
2022-09-10T04:11:14.096Z,2.50
2022-09-10T04:13:41.158Z,2.20
2022-09-10T04:16:08.328Z,2.10
2022-09-10T04:18:35.530Z,2.17
2022-09-10T04:21:02.754Z,2.50
2022-09-10T04:23:30.054Z,1.85
2022-09-10T04:25:57.149Z,2.67
2022-09-10T04:28:24.398Z,2.50
2022-09-10T04:30:51.475Z,1.90
2022-09-10T04:33:18.731Z,2.42
2022-09-10T04:35:46.087Z,2.40
2022-09-10T04:38:13.187Z,2.38
2022-09-10T04:40:40.324Z,2.25
2022-09-10T04:43:08.730Z,2.92
2022-09-10T04:45:36.044Z,3.30
2022-09-10T04:48:06.858Z,2.55
2022-09-10T04:50:34.371Z,2.35
2022-09-10T04:53:01.429Z,2.38
2022-09-10T04:55:28.511Z,2.40
2022-09-10T04:57:55.591Z,2.55
2022-09-10T05:00:22.918Z,2.45
2022-09-10T05:02:50.041Z,2.72
2022-09-10T05:05:17.138Z,2.72
2022-09-10T05:07:44.216Z,2.65
2022-09-10T05:10:11.317Z,2.30
2022-09-10T05:12:41.248Z,2.35
2022-09-10T05:15:11.048Z,2.50
2022-09-10T05:17:38.104Z,2.33
2022-09-10T05:20:07.568Z,2.30
2022-09-10T05:22:40.262Z,2.80
2022-09-10T05:25:07.954Z,3.35
2022-09-10T05:27:35.095Z,3.35
2022-09-10T05:30:02.227Z,3.13
2022-09-10T05:32:32.666Z,3.20
2022-09-10T05:34:59.724Z,3.65
2022-09-10T05:37:28.047Z,2.90
2022-09-10T05:39:55.201Z,3.28
2022-09-10T05:42:22.461Z,3.03
2022-09-10T05:44:49.639Z,2.85
2022-09-10T05:47:16.755Z,3.67
2022-09-10T05:49:46.975Z,3.20
2022-09-10T05:52:14.137Z,2.97
2022-09-10T05:54:41.281Z,3.08
2022-09-10T05:57:08.407Z,3.50
2022-09-10T05:59:36.434Z,3.42
2022-09-10T06:02:03.756Z,3.20
2022-09-10T06:04:31.101Z,3.53
2022-09-10T06:06:58.180Z,3.20
2022-09-10T06:09:25.276Z,3.35
2022-09-10T06:11:53.252Z,3.53
2022-09-10T06:14:20.790Z,3.35
2022-09-10T06:16:49.860Z,3.47
2022-09-10T06:19:17.093Z,3.45
2022-09-10T06:21:44.378Z,3.15
2022-09-10T06:24:11.464Z,3.25
2022-09-10T06:26:38.579Z,3.30
2022-09-10T06:29:06.151Z,3.25
2022-09-10T06:31:34.676Z,2.95
2022-09-10T06:34:02.534Z,3.30
2022-09-10T06:36:29.697Z,3.05
2022-09-10T06:38:58.105Z,3.13
2022-09-10T06:41:25.362Z,3.05
2022-09-10T06:43:52.504Z,3.05
2022-09-10T06:46:54.924Z,2.78
2022-09-10T06:49:07.411Z,2.50
2022-09-10T06:51:34.539Z,2.47
2022-09-10T06:54:02.822Z,2.75
2022-09-10T06:56:30.226Z,2.78
2022-09-10T06:59:00.384Z,2.13
2022-09-10T07:01:29.268Z,2.80
2022-09-10T07:03:57.596Z,3.20
2022-09-10T07:06:25.263Z,3.80
2022-09-10T07:08:56.518Z,2.92
2022-09-10T07:11:23.791Z,2.65
2022-09-10T07:13:54.481Z,2.40
2022-09-10T07:16:22.443Z,2.50
2022-09-10T07:18:50.523Z,2.25
2022-09-10T07:21:18.467Z,2.55
2022-09-10T07:23:48.382Z,2.45
2022-09-10T07:26:16.935Z,2.88
2022-09-10T07:28:44.433Z,2.15
2022-09-10T07:31:28.813Z,2.38
2022-09-10T07:33:57.626Z,2.63
2022-09-10T07:38:52.693Z,2.20
2022-09-10T07:41:19.829Z,2.10
2022-09-10T07:43:47.186Z,2.17
2022-09-10T07:46:20.517Z,2.40
2022-09-10T07:48:48.616Z,2.38
2022-09-10T07:51:19.214Z,2.20
2022-09-10T07:53:50.533Z,2.10
2022-09-10T07:56:17.975Z,2.20
2022-09-10T07:58:45.151Z,1.70
2022-09-10T08:01:12.845Z,2.10
2022-09-10T08:03:40.494Z,1.75
2022-09-10T08:06:09.035Z,2.00
2022-09-10T08:08:38.266Z,1.98
2022-09-10T08:11:09.849Z,1.80
2022-09-10T08:13:42.286Z,2.40
2022-09-10T08:16:10.841Z,2.28
2022-09-10T08:18:38.292Z,1.70
2022-09-10T08:21:07.524Z,2.03
2022-09-10T08:23:35.935Z,2.13
2022-09-10T08:26:04.414Z,2.10
2022-09-10T08:28:31.575Z,1.75
2022-09-10T08:31:07.690Z,1.45
2022-09-10T08:33:35.675Z,1.92
2022-09-10T08:36:04.712Z,1.60
2022-09-10T08:38:33.217Z,1.52
2022-09-10T08:41:01.401Z,2.03
2022-09-10T08:43:49.598Z,1.58
2022-09-10T08:46:22.633Z,1.35
2022-09-10T08:48:55.139Z,1.48
2022-09-10T08:51:31.163Z,1.75
2022-09-10T08:53:59.973Z,2.22
2022-09-10T08:58:56.927Z,1.77
2022-09-10T09:01:32.189Z,2.03
2022-09-10T09:04:02.607Z,2.00
2022-09-10T09:06:39.486Z,1.45
2022-09-10T09:09:06.652Z,1.85
2022-09-10T09:11:38.553Z,1.85
2022-09-10T09:14:22.431Z,1.88
2022-09-10T09:17:01.892Z,1.80
2022-09-10T09:19:38.862Z,1.77
2022-09-10T09:22:29.068Z,1.65
2022-09-10T09:25:00.763Z,1.58
2022-09-10T09:27:30.637Z,2.28
2022-09-10T09:30:02.114Z,1.50
2022-09-10T09:32:31.304Z,1.50
2022-09-10T09:35:05.635Z,1.88
2022-09-10T09:37:34.613Z,1.52
2022-09-10T09:40:12.526Z,1.80
2022-09-10T09:42:49.753Z,1.50
2022-09-10T09:45:30.359Z,1.40
2022-09-10T09:47:57.976Z,1.25
2022-09-10T09:50:25.154Z,2.03
2022-09-10T09:52:55.136Z,1.60
2022-09-10T09:55:27.314Z,1.08
2022-09-10T09:58:14.335Z,1.48
2022-09-10T10:00:41.463Z,1.25
2022-09-10T10:03:15.430Z,1.70
2022-09-10T10:05:42.845Z,1.30
2022-09-10T10:08:42.290Z,1.15
2022-09-10T10:13:40.649Z,1.40
2022-09-10T10:16:48.531Z,1.23
2022-09-10T10:19:27.701Z,1.15
2022-09-10T10:21:54.945Z,1.52
2022-09-10T10:24:30.495Z,1.33
2022-09-10T10:26:58.671Z,1.50
2022-09-10T10:29:26.284Z,1.55
2022-09-10T10:31:53.690Z,1.80
2022-09-10T10:34:29.963Z,1.63
2022-09-10T10:37:15.993Z,1.75
2022-09-10T10:40:01.982Z,1.80
2022-09-10T10:42:35.425Z,1.55
2022-09-10T10:45:22.783Z,1.42
2022-09-10T10:48:25.484Z,1.38
2022-09-10T10:51:05.013Z,1.65
2022-09-10T10:53:38.485Z,1.65
2022-09-10T10:56:05.587Z,1.70
2022-09-10T10:58:53.457Z,1.50
2022-09-10T11:01:25.211Z,2.10
2022-09-10T11:03:56.050Z,1.75
2022-09-10T11:06:24.915Z,1.80
2022-09-10T11:08:57.678Z,1.77
2022-09-10T11:11:34.229Z,2.40
2022-09-10T11:14:07.838Z,2.05
2022-09-10T11:16:41.544Z,2.08
2022-09-10T11:19:18.514Z,2.08
2022-09-10T11:21:53.320Z,1.92
2022-09-10T11:24:20.452Z,2.22
2022-09-10T11:26:54.295Z,1.98
2022-09-10T11:29:25.360Z,2.05
2022-09-10T11:31:56.628Z,2.00
2022-09-10T11:34:49.316Z,1.80
2022-09-10T11:37:31.393Z,1.80
2022-09-10T11:40:01.103Z,1.80
2022-09-10T11:42:28.236Z,1.90
2022-09-10T11:45:05.671Z,2.13
2022-09-10T11:47:56.285Z,1.90
2022-09-10T11:50:32.361Z,1.63
2022-09-10T11:53:01.989Z,1.90
2022-09-10T11:55:50.007Z,2.17
2022-09-10T11:58:36.033Z,1.90
2022-09-10T12:01:21.525Z,2.13
2022-09-10T12:03:58.103Z,2.00
2022-09-10T12:06:32.169Z,2.85
2022-09-10T12:09:19.483Z,2.20
2022-09-10T12:11:47.972Z,2.00
2022-09-10T12:14:16.850Z,2.33
2022-09-10T12:16:49.151Z,1.90
2022-09-10T12:19:22.608Z,1.83
2022-09-10T12:21:51.647Z,1.83
2022-09-10T12:24:25.651Z,1.90
2022-09-10T12:26:53.204Z,2.20
2022-09-10T12:29:31.003Z,2.00
2022-09-10T12:32:10.338Z,2.33
2022-09-10T12:34:37.742Z,1.70
2022-09-10T12:37:04.786Z,1.98
2022-09-10T12:39:32.148Z,1.88
2022-09-10T12:42:00.466Z,1.70
2022-09-10T12:44:29.853Z,1.80
2022-09-10T12:47:15.801Z,2.45
2022-09-10T12:49:49.330Z,2.55
2022-09-10T12:52:39.589Z,2.33
2022-09-10T12:55:22.146Z,2.30
2022-09-10T12:58:01.208Z,2.03
2022-09-10T13:00:32.604Z,1.90
2022-09-10T13:03:05.756Z,2.30
2022-09-10T13:05:38.685Z,2.63
2022-09-10T13:08:27.422Z,2.50
2022-09-10T13:10:58.920Z,2.42
2022-09-10T13:13:35.294Z,2.13
2022-09-10T13:16:03.590Z,2.67
2022-09-10T13:18:33.963Z,2.15
2022-09-10T13:21:21.044Z,2.20
2022-09-10T13:26:34.087Z,2.60
2022-09-10T13:29:02.583Z,8.75
2022-09-10T13:31:31.562Z,16.10
2022-09-10T13:34:01.679Z,18.60
2022-09-10T13:36:34.564Z,27.20
2022-09-10T13:39:12.366Z,35.90
2022-09-10T13:41:48.539Z,24.40
2022-09-10T13:44:16.021Z,22.58
2022-09-10T13:46:45.875Z,23.35
2022-09-10T13:49:31.202Z,28.85
2022-09-10T13:51:59.674Z,30.13
2022-09-10T13:54:51.457Z,32.83
2022-09-10T13:57:21.137Z,30.83
2022-09-10T13:59:52.657Z,30.60
2022-09-10T14:02:21.281Z,29.23
2022-09-10T14:04:48.678Z,29.85
2022-09-10T14:07:23.598Z,29.30
2022-09-10T14:12:19.598Z,20.48
2022-09-10T14:14:48.878Z,28.58
2022-09-10T14:17:20.995Z,25.05
2022-09-10T14:19:52.036Z,24.40
2022-09-10T14:22:24.979Z,26.08
2022-09-10T14:24:54.607Z,16.13
2022-09-10T14:27:34.765Z,20.23
2022-09-10T14:30:23.314Z,23.33
2022-09-10T14:32:51.940Z,24.75
2022-09-10T14:35:38.137Z,23.40
2022-09-10T14:38:21.088Z,19.52
2022-09-10T14:40:49.568Z,19.88
2022-09-10T14:43:26.507Z,16.98
2022-09-10T14:45:53.668Z,17.42
2022-09-10T14:48:40.011Z,14.55
2022-09-10T14:51:14.424Z,14.18
2022-09-10T14:53:42.664Z,13.48
2022-09-10T14:56:13.792Z,14.48
2022-09-10T14:58:40.876Z,12.40
2022-09-10T15:01:09.310Z,11.13
2022-09-10T15:03:38.430Z,10.82
2022-09-10T15:06:05.623Z,10.75
2022-09-10T15:08:32.680Z,10.48
2022-09-10T15:11:00.582Z,9.85
2022-09-10T15:13:27.648Z,7.38
2022-09-10T15:15:55.893Z,9.07
2022-09-10T15:18:23.084Z,7.32
2022-09-10T15:20:50.595Z,9.93
2022-09-10T15:23:19.199Z,8.40
2022-09-10T15:25:50.499Z,8.63
2022-09-10T15:28:17.551Z,7.03
2022-09-10T15:30:44.652Z,6.38
2022-09-10T15:33:14.557Z,6.80
2022-09-10T15:35:41.683Z,7.30
2022-09-10T15:38:12.087Z,5.53
2022-09-10T15:40:39.204Z,4.32
2022-09-10T15:43:06.368Z,4.78
2022-09-10T15:45:37.426Z,4.60
2022-09-10T15:48:05.409Z,4.13
2022-09-10T15:50:32.542Z,4.75
2022-09-10T15:53:00.120Z,4.47
2022-09-10T15:55:31.465Z,3.50
2022-09-10T15:57:58.554Z,3.58
2022-09-10T16:00:25.822Z,3.53
2022-09-10T16:02:53.954Z,4.20
2022-09-10T16:05:21.468Z,3.50
2022-09-10T16:07:49.633Z,3.83
2022-09-10T16:10:17.043Z,3.40
2022-09-10T16:12:44.234Z,3.45
2022-09-10T16:15:13.902Z,3.00
2022-09-10T16:17:40.989Z,3.13
2022-09-10T16:20:08.411Z,2.80
2022-09-10T16:22:35.520Z,3.33
2022-09-10T16:25:04.848Z,2.97
2022-09-10T16:27:31.924Z,2.67
2022-09-10T16:29:58.986Z,3.15
2022-09-10T16:32:26.078Z,2.83
2022-09-10T16:34:53.139Z,2.80
2022-09-10T16:37:21.466Z,2.50
2022-09-10T16:39:48.640Z,2.60
2022-09-10T16:42:15.887Z,2.42
2022-09-10T16:44:45.726Z,2.47
2022-09-10T16:47:14.132Z,2.72
2022-09-10T16:49:41.417Z,2.35
2022-09-10T16:52:08.671Z,2.50
2022-09-10T16:54:38.312Z,2.20
2022-09-10T16:57:05.483Z,2.38
2022-09-10T16:59:32.576Z,2.50
2022-09-10T17:02:00.548Z,2.40
2022-09-10T17:04:29.354Z,2.40
2022-09-10T17:06:57.503Z,2.17
2022-09-10T17:09:25.050Z,2.25
2022-09-10T17:11:55.029Z,2.38
2022-09-10T17:14:25.072Z,2.33
2022-09-10T17:16:52.251Z,2.05
2022-09-10T17:19:21.248Z,2.00
2022-09-10T17:21:51.528Z,2.05
2022-09-10T17:24:19.363Z,2.20
2022-09-10T17:26:46.560Z,2.03
2022-09-10T17:29:15.891Z,2.30
2022-09-10T17:31:43.187Z,2.17
2022-09-10T17:34:13.220Z,1.80
2022-09-10T17:36:40.757Z,2.05
2022-09-10T17:39:08.108Z,2.20
2022-09-10T17:41:35.342Z,2.47
2022-09-10T17:44:02.606Z,2.20
2022-09-10T17:46:31.251Z,2.17
2022-09-10T17:49:02.096Z,2.67
2022-09-10T17:51:30.800Z,2.28
2022-09-10T17:53:58.589Z,2.33
2022-09-10T17:56:26.484Z,2.05
2022-09-10T17:58:57.929Z,3.88
2022-09-10T18:01:26.200Z,3.38
2022-09-10T18:03:53.829Z,2.80
2022-09-10T18:06:21.608Z,2.53
2022-09-10T18:08:50.886Z,2.58
2022-09-10T18:11:22.749Z,2.20
2022-09-10T18:13:52.040Z,2.22
2022-09-10T18:16:21.465Z,2.40
2022-09-10T18:18:53.960Z,2.60
2022-09-10T18:21:23.891Z,2.25
2022-09-10T18:23:52.762Z,2.25
2022-09-10T18:28:55.256Z,2.35
2022-09-10T18:31:23.327Z,2.60
2022-09-10T18:33:50.610Z,2.63
2022-09-10T18:36:18.795Z,2.83
2022-09-10T18:38:46.993Z,2.38
2022-09-10T18:41:24.851Z,2.60
2022-09-10T18:43:52.973Z,2.28
2022-09-10T18:46:20.789Z,2.40
2022-09-10T18:48:48.819Z,2.30
2022-09-10T18:51:16.982Z,2.30
2022-09-10T18:53:45.236Z,2.33
2022-09-10T18:56:16.486Z,2.60
2022-09-10T18:58:48.411Z,2.95
2022-09-10T19:01:15.610Z,2.78
2022-09-10T19:03:43.974Z,3.25
2022-09-10T19:06:11.822Z,2.22
2022-09-10T19:08:39.234Z,2.40
2022-09-10T19:11:08.814Z,2.55
2022-09-10T19:13:36.305Z,2.10
2022-09-10T19:16:04.589Z,2.13
2022-09-10T19:18:32.724Z,2.72
2022-09-10T19:21:03.130Z,2.70
2022-09-10T19:23:30.281Z,2.38
2022-09-10T19:25:58.806Z,3.30
2022-09-10T19:28:25.947Z,2.60
2022-09-10T19:30:53.371Z,2.42
2022-09-10T19:33:20.934Z,2.30
2022-09-10T19:35:48.236Z,2.30
2022-09-10T19:38:36.292Z,2.40
2022-09-10T19:41:03.564Z,2.83
2022-09-10T19:43:30.686Z,2.60
2022-09-10T19:45:57.903Z,3.60
2022-09-10T19:48:25.072Z,2.35
2022-09-10T19:50:52.531Z,2.85
2022-09-10T19:53:20.215Z,3.05
2022-09-10T19:55:49.053Z,2.85
2022-09-10T19:58:18.247Z,2.30
2022-09-10T20:00:47.428Z,2.70
2022-09-10T20:03:15.096Z,2.35
2022-09-10T20:05:46.165Z,2.47
2022-09-10T20:08:13.578Z,2.42
2022-09-10T20:10:40.627Z,2.20
2022-09-10T20:13:08.330Z,2.60
2022-09-10T20:15:41.273Z,2.35
2022-09-10T20:18:12.090Z,2.80
2022-09-10T20:20:39.174Z,2.33
2022-09-10T20:23:06.319Z,2.42
2022-09-10T20:25:36.091Z,2.35
2022-09-10T20:28:03.320Z,2.45
2022-09-10T20:30:30.929Z,2.42
2022-09-10T20:32:58.446Z,2.70
2022-09-10T20:35:25.658Z,2.55
2022-09-10T20:37:52.733Z,2.63
2022-09-10T20:40:19.836Z,2.72
2022-09-10T20:42:47.004Z,2.60
2022-09-10T20:45:14.148Z,2.22
2022-09-10T20:47:42.967Z,2.38
2022-09-10T20:52:37.740Z,3.15
2022-09-10T20:55:05.692Z,3.10
2022-09-10T20:57:32.900Z,2.50
2022-09-10T21:00:00.022Z,2.63
2022-09-10T21:02:27.209Z,2.55
2022-09-10T21:04:54.575Z,2.85
2022-09-10T21:07:21.654Z,3.05
2022-09-10T21:09:48.827Z,2.83
2022-09-10T21:12:16.098Z,3.08
2022-09-10T21:14:43.246Z,2.75
2022-09-10T21:17:10.568Z,2.63
2022-09-10T21:19:37.746Z,3.10
2022-09-10T21:22:04.882Z,2.63
2022-09-10T21:24:31.958Z,2.85
2022-09-10T21:26:59.356Z,2.75
2022-09-10T21:29:26.640Z,2.88
2022-09-10T21:31:56.007Z,3.13
2022-09-10T21:34:23.644Z,3.00
2022-09-10T21:36:51.311Z,3.10
2022-09-10T21:39:18.707Z,3.08
2022-09-10T21:41:49.719Z,3.78
2022-09-10T21:44:18.564Z,3.00
2022-09-10T21:49:13.345Z,2.70
2022-09-10T21:51:41.355Z,2.67
2022-09-10T21:54:11.699Z,2.78
2022-09-10T21:56:38.887Z,3.00
2022-09-10T21:59:05.967Z,2.80
2022-09-10T22:01:33.195Z,2.50
2022-09-10T22:04:01.413Z,3.05
2022-09-10T22:06:32.793Z,2.78
2022-09-10T22:09:01.593Z,3.13
2022-09-10T22:14:01.150Z,2.22
2022-09-10T22:16:29.262Z,2.60
2022-09-10T22:18:57.006Z,2.65
2022-09-10T22:21:24.996Z,2.70
2022-09-10T22:23:52.223Z,2.33
2022-09-10T22:26:20.629Z,2.30
2022-09-10T22:28:53.876Z,2.65
2022-09-10T22:31:24.956Z,2.33
2022-09-10T22:33:53.627Z,2.78
2022-09-10T22:36:24.725Z,2.58
2022-09-10T22:38:52.779Z,2.90
2022-09-10T22:41:19.910Z,2.72
2022-09-10T22:43:47.092Z,2.88
2022-09-10T22:46:14.274Z,2.72
2022-09-10T22:48:45.535Z,3.30
2022-09-10T22:51:17.767Z,3.00
2022-09-10T22:53:45.646Z,2.95
2022-09-10T22:56:13.626Z,2.63
2022-09-10T22:58:41.009Z,2.70
2022-09-10T23:01:27.961Z,2.70
2022-09-10T23:03:59.346Z,2.50
2022-09-10T23:06:28.264Z,2.40
2022-09-10T23:08:56.967Z,2.92
2022-09-10T23:11:26.212Z,2.80
2022-09-10T23:14:01.264Z,3.08
2022-09-10T23:16:31.034Z,2.70
2022-09-10T23:18:59.844Z,2.50
2022-09-10T23:23:56.022Z,2.55
2022-09-10T23:26:23.663Z,3.03
2022-09-10T23:28:50.820Z,3.40
2022-09-10T23:31:23.929Z,3.20
2022-09-10T23:33:54.932Z,3.03
2022-09-10T23:36:22.547Z,2.50
2022-09-10T23:38:49.625Z,2.90
2022-09-10T23:41:17.050Z,3.20
2022-09-10T23:43:44.478Z,2.60
2022-09-10T23:46:12.109Z,2.97
2022-09-10T23:48:39.706Z,3.40
2022-09-10T23:51:06.890Z,3.10
2022-09-10T23:53:34.383Z,3.25
2022-09-10T23:56:02.942Z,3.03
2022-09-10T23:58:30.092Z,3.17
